Gaylord, MI (49734)

3:48 PM EST on December 07, 2016 (GMT -0500)
Pine Briar | | Change Station
Active Advisory: Winter Weather Advisory

Elev 1302 ft 45.02 °N, 84.71 °W | Updated 1 minute ago

Overcast
Overcast
26.6 °F
Feels Like 19 °F
N
7.0
Wind Variable Wind from West

Today
High -- | Low -- °F
--% Chance of Precip.
Yesterday
High -- | Low -- °F
Precip. -- in
Pressure 29.80 in
Visibility 10.0 miles
Clouds Mostly Cloudy 2500 ft
Overcast 3200 ft
Windchill 19 °F
Dew Point 19 °F
Humidity 75%
Rainfall 0.00 in
Snow Depth Not available.
8:03 AM 4:57 PM
First Quarter, 56% visible
SPECI KGLR 072031Z AUTO 24014G24KT 10SM BKN025 OVC032 M02/M08 A2980 RMK AO2 PK WND 25027/1957 T10221083
Pressure 29.80 in
Visibility 10.0 miles
Clouds Mostly Cloudy 2500 ft
Overcast 3200 ft
Windchill 19 °F
Dew Point 19 °F
Humidity 75%
Rainfall 0.00 in
Snow Depth Not available.
8:03 AM 4:57 PM
First Quarter, 56% visible
SPECI KGLR 072031Z AUTO 24014G24KT 10SM BKN025 OVC032 M02/M08 A2980 RMK AO2 PK WND 25027/1957 T10221083

10-Day Weather Forecast

Almanac

Astronomy

Dec. 07, 2016 Rise Set
Actual Time
Civil Twilight
Nautical Twilight
Astronomical Twilight
Moon
Length of Visible Light
Length of Day
Tomorrow will be .
, % of the Moon is Illuminated

Today's Extremes

State Highs State Lows

Community

WunderPhotos

Upload Photos

1,956,170 photos uploaded!

WunderBlog® & News

Nearby

Air Quality

  Air Quality AQ Index Pollutant
Not available.

Snow Depth

Station Depth Elevation

Earthquake Activity

City Distance Mag. Time & Date
Minimum magnitude displayed is 2.5.

Coastal Water Temperatures

Place Temperature

Stations

Nearby Weather Stations

Station Location Temp. Windchill Dew Point Humidity Wind Precip. Elev Updated Type
                   

Watches & Warnings

Winter Weather Advisory
Issued: 3:46 PM EST Dec. 7, 2016 – National Weather Service

... Winter Weather Advisory remains in effect from midnight
tonight to 3 PM EST Friday...

A Winter Weather Advisory remains in effect from midnight tonight
to 3 PM EST Friday.

* Expect snow to develop after midnight and continue through
Friday afternoon.

* The heaviest snowfall will occur Thursday through Thursday night.

* Total snow accumulations of 4 to 8 inches are expected.

* Look for reduced visibilities at times.

* Plan on difficult driving conditions... including during the
evening commute on Thursday.

Precautionary/preparedness actions...

A Winter Weather Advisory for snow means periods of snow will
cause primarily travel difficulties. Be prepared for snow covered
roads and limited visibilities... and use caution while driving.
For the latest Road conditions... go to the mdot website at
Michigan.Gov.